createdAt,value
2019-03-23T00:01:15.507Z,8.73
2019-03-23T00:03:41.542Z,8.90
2019-03-23T00:06:07.576Z,9.70
2019-03-23T00:08:33.608Z,9.83
2019-03-23T00:10:59.651Z,9.63
2019-03-23T00:13:25.687Z,9.47
2019-03-23T00:15:51.696Z,9.43
2019-03-23T00:18:17.731Z,10.82
2019-03-23T00:20:43.735Z,9.63
2019-03-23T00:23:09.771Z,9.93
2019-03-23T00:25:35.787Z,9.27
2019-03-23T00:28:01.826Z,10.10
2019-03-23T00:30:27.944Z,9.73
2019-03-23T00:32:53.975Z,9.73
2019-03-23T00:35:19.983Z,9.40
2019-03-23T00:37:46.015Z,10.97
2019-03-23T00:40:12.638Z,11.13
2019-03-23T00:42:38.667Z,10.27
2019-03-23T00:45:06.683Z,9.50
2019-03-23T00:47:32.715Z,10.60
2019-03-23T00:49:58.727Z,10.07
2019-03-23T00:52:24.759Z,11.07
2019-03-23T00:54:50.774Z,10.03
2019-03-23T00:57:16.802Z,9.97
2019-03-23T00:59:42.884Z,10.47
2019-03-23T01:02:08.896Z,10.43
2019-03-23T01:04:34.932Z,10.30
2019-03-23T01:07:01.042Z,11.17
2019-03-23T01:09:27.084Z,9.47
2019-03-23T01:11:53.100Z,9.73
2019-03-23T01:14:19.132Z,9.77
2019-03-23T01:16:45.203Z,11.83
2019-03-23T01:19:11.284Z,10.73
2019-03-23T01:21:37.295Z,10.63
2019-03-23T01:24:03.331Z,10.47
2019-03-23T01:26:29.347Z,10.47
2019-03-23T01:28:55.406Z,10.33
2019-03-23T01:31:21.407Z,10.40
2019-03-23T01:33:47.438Z,10.33
2019-03-23T01:36:13.454Z,10.50
2019-03-23T01:38:39.487Z,11.57
2019-03-23T01:41:05.503Z,10.40
2019-03-23T01:43:31.552Z,11.20
2019-03-23T01:45:57.700Z,10.37
2019-03-23T01:48:23.730Z,11.20
2019-03-23T01:50:49.745Z,10.23
2019-03-23T01:53:15.775Z,11.80
2019-03-23T01:55:41.797Z,11.30
2019-03-23T01:58:07.829Z,11.70
2019-03-23T02:00:33.849Z,12.10
2019-03-23T02:02:59.879Z,11.97
2019-03-23T02:05:25.886Z,11.27
2019-03-23T02:07:51.917Z,11.13
2019-03-23T02:10:17.938Z,12.03
2019-03-23T02:12:43.967Z,11.40
2019-03-23T02:15:11.086Z,11.20
2019-03-23T02:17:37.197Z,11.03
2019-03-23T02:20:05.957Z,11.73
2019-03-23T02:22:31.968Z,12.03
2019-03-23T02:24:57.996Z,13.03
2019-03-23T02:27:24.023Z,11.27
2019-03-23T02:29:50.060Z,11.87
2019-03-23T02:32:16.089Z,11.67
2019-03-23T02:34:42.124Z,13.13
2019-03-23T02:37:08.145Z,13.50
2019-03-23T02:39:34.171Z,13.93
2019-03-23T02:42:00.190Z,12.73
2019-03-23T02:44:26.231Z,15.87
2019-03-23T02:46:52.235Z,13.43
2019-03-23T02:49:18.282Z,13.33
2019-03-23T02:51:44.285Z,13.07
2019-03-23T02:54:10.319Z,11.83
2019-03-23T02:56:36.334Z,12.53
2019-03-23T02:59:02.373Z,13.53
2019-03-23T03:01:28.392Z,13.57
2019-03-23T03:03:54.449Z,14.37
2019-03-23T03:06:20.463Z,14.93
2019-03-23T03:08:46.489Z,13.17
2019-03-23T03:11:12.568Z,14.53
2019-03-23T03:13:38.663Z,14.47
2019-03-23T03:16:04.673Z,15.27
2019-03-23T03:18:30.695Z,12.40
2019-03-23T03:20:56.708Z,12.27
2019-03-23T03:23:22.740Z,11.73
2019-03-23T03:25:48.764Z,13.83
2019-03-23T03:28:15.020Z,12.93
2019-03-23T03:30:41.034Z,12.00
2019-03-23T03:33:07.358Z,13.07
2019-03-23T03:35:33.480Z,13.17
2019-03-23T03:37:59.491Z,13.13
2019-03-23T03:40:25.526Z,14.00
2019-03-23T03:42:51.544Z,15.33
2019-03-23T03:45:25.996Z,14.10
2019-03-23T03:47:52.112Z,13.47
2019-03-23T03:50:18.244Z,13.33
2019-03-23T03:52:44.255Z,13.20
2019-03-23T03:55:10.292Z,13.57
2019-03-23T03:57:36.319Z,13.17
2019-03-23T04:00:04.718Z,14.07
2019-03-23T04:02:30.744Z,13.53
2019-03-23T04:04:56.776Z,13.80
2019-03-23T04:07:22.802Z,14.97
2019-03-23T04:09:48.831Z,13.43
2019-03-23T04:12:14.841Z,12.43
2019-03-23T04:14:40.874Z,12.57
2019-03-23T04:17:06.893Z,13.80
2019-03-23T04:19:32.912Z,13.93
2019-03-23T04:21:58.936Z,13.27
2019-03-23T04:24:25.008Z,14.97
2019-03-23T04:26:51.080Z,14.90
2019-03-23T04:29:17.112Z,15.47
2019-03-23T04:31:43.127Z,15.70
2019-03-23T04:34:09.148Z,14.93
2019-03-23T04:36:35.164Z,16.63
2019-03-23T04:39:01.463Z,15.67
2019-03-23T04:41:27.476Z,16.40
2019-03-23T04:43:53.505Z,16.50
2019-03-23T04:46:19.515Z,16.40
2019-03-23T04:48:45.552Z,16.47
2019-03-23T04:51:11.567Z,15.47
2019-03-23T04:53:37.583Z,15.37
2019-03-23T04:56:03.616Z,15.63
2019-03-23T04:58:29.632Z,15.90
2019-03-23T05:00:55.679Z,15.13
2019-03-23T05:03:21.686Z,15.23
2019-03-23T05:05:47.720Z,16.47
2019-03-23T05:08:13.731Z,18.70
2019-03-23T05:10:39.803Z,16.77
2019-03-23T05:13:05.819Z,15.50
2019-03-23T05:15:31.859Z,17.07
2019-03-23T05:17:57.891Z,16.43
2019-03-23T05:20:30.818Z,16.37
2019-03-23T05:22:57.234Z,18.10
2019-03-23T05:25:28.095Z,17.10
2019-03-23T05:27:54.507Z,16.13
2019-03-23T05:30:20.539Z,15.10
2019-03-23T05:32:46.556Z,15.90
2019-03-23T05:35:12.604Z,15.83
2019-03-23T05:37:38.622Z,15.63
2019-03-23T05:40:05.469Z,16.53
2019-03-23T05:42:31.481Z,16.33
2019-03-23T05:44:57.514Z,16.30
2019-03-23T05:47:23.523Z,15.90
2019-03-23T05:49:49.592Z,15.77
2019-03-23T05:52:15.703Z,16.80
2019-03-23T05:54:41.739Z,16.33
2019-03-23T05:57:07.752Z,15.93
2019-03-23T05:59:33.785Z,15.30
2019-03-23T06:01:59.799Z,14.97
2019-03-23T06:04:25.891Z,15.53
2019-03-23T06:06:51.907Z,17.00
2019-03-23T06:09:17.939Z,19.07
2019-03-23T06:11:43.951Z,18.27
2019-03-23T06:14:10.005Z,19.07
2019-03-23T06:16:36.027Z,18.80
2019-03-23T06:19:02.035Z,19.97
2019-03-23T06:21:28.077Z,19.30
2019-03-23T06:23:54.087Z,19.63
2019-03-23T06:26:20.435Z,18.93
2019-03-23T06:28:46.450Z,17.13
2019-03-23T06:31:12.482Z,18.57
2019-03-23T06:33:38.492Z,18.17
2019-03-23T06:36:04.521Z,19.07
2019-03-23T06:38:30.544Z,18.90
2019-03-23T06:40:56.574Z,18.00
2019-03-23T06:43:22.585Z,18.30
2019-03-23T06:45:48.616Z,18.80
2019-03-23T06:48:14.645Z,17.87
2019-03-23T06:50:40.675Z,18.17
2019-03-23T06:53:06.684Z,17.50
2019-03-23T06:55:32.711Z,18.07
2019-03-23T06:57:58.728Z,17.03
2019-03-23T07:00:24.795Z,18.40
2019-03-23T07:02:50.811Z,18.47
2019-03-23T07:05:16.956Z,20.30
2019-03-23T07:07:43.022Z,20.03
2019-03-23T07:10:11.007Z,19.30
2019-03-23T07:12:37.019Z,19.80
2019-03-23T07:15:06.259Z,19.43
2019-03-23T07:17:52.153Z,19.67
2019-03-23T07:20:18.189Z,21.80
2019-03-23T07:22:44.203Z,22.40
2019-03-23T07:25:10.751Z,22.40
2019-03-23T07:27:36.859Z,22.73
2019-03-23T07:30:06.105Z,23.40
2019-03-23T07:32:32.140Z,22.23
2019-03-23T07:34:58.180Z,26.23
2019-03-23T07:37:24.200Z,24.03
2019-03-23T07:39:50.336Z,22.90
2019-03-23T07:42:16.354Z,25.87
2019-03-23T07:44:42.383Z,24.10
2019-03-23T07:47:08.483Z,23.50
2019-03-23T07:49:34.529Z,24.27
2019-03-23T07:52:02.004Z,25.00
2019-03-23T07:54:28.026Z,25.77
2019-03-23T07:56:54.059Z,24.37
2019-03-23T07:59:20.075Z,25.93
2019-03-23T08:01:46.117Z,26.20
2019-03-23T08:04:12.129Z,24.77
2019-03-23T08:06:38.166Z,25.83
2019-03-23T08:09:04.684Z,26.10
2019-03-23T08:11:30.756Z,27.47
2019-03-23T08:13:56.772Z,24.03
2019-03-23T08:16:22.807Z,24.90
2019-03-23T08:18:48.820Z,26.10
2019-03-23T08:21:14.987Z,25.00
2019-03-23T08:23:41.133Z,25.10
2019-03-23T08:26:07.168Z,27.13
2019-03-23T08:28:33.184Z,26.47
2019-03-23T08:30:59.227Z,29.73
2019-03-23T08:33:25.239Z,27.77
2019-03-23T08:35:51.280Z,25.77
2019-03-23T08:38:17.283Z,26.07
2019-03-23T08:41:03.201Z,27.47
2019-03-23T08:43:29.522Z,27.10
2019-03-23T08:45:55.611Z,27.00
2019-03-23T08:48:21.652Z,27.10
2019-03-23T08:50:47.692Z,28.87
2019-03-23T08:53:13.794Z,32.47
2019-03-23T08:55:41.279Z,28.27
2019-03-23T08:58:07.299Z,28.33
2019-03-23T09:00:33.328Z,27.50
2019-03-23T09:02:59.340Z,29.13
2019-03-23T09:05:25.379Z,27.20
2019-03-23T09:07:52.636Z,27.87
2019-03-23T09:10:18.831Z,26.63
2019-03-23T09:12:44.857Z,27.77
2019-03-23T09:15:11.096Z,28.57
2019-03-23T09:17:37.119Z,27.53
2019-03-23T09:20:06.241Z,28.23
2019-03-23T09:22:32.279Z,28.83
2019-03-23T09:24:58.288Z,28.10
2019-03-23T09:27:24.316Z,28.00
2019-03-23T09:29:50.336Z,27.73
2019-03-23T09:32:16.395Z,31.33
2019-03-23T09:34:42.403Z,28.73
2019-03-23T09:37:08.441Z,27.40
2019-03-23T09:39:34.452Z,26.83
2019-03-23T09:42:01.852Z,28.63
2019-03-23T09:44:27.859Z,28.87
2019-03-23T09:46:53.892Z,27.27
2019-03-23T09:49:22.018Z,27.47
2019-03-23T09:51:47.851Z,30.30
2019-03-23T09:54:13.871Z,30.83
2019-03-23T09:56:39.904Z,28.47
2019-03-23T09:59:05.915Z,29.67
2019-03-23T10:01:31.948Z,28.93
2019-03-23T10:03:58.031Z,27.17
2019-03-23T10:06:24.063Z,27.47
2019-03-23T10:08:50.083Z,28.07
2019-03-23T10:11:16.112Z,27.03
2019-03-23T10:13:42.127Z,28.83
2019-03-23T10:16:08.160Z,28.60
2019-03-23T10:18:54.051Z,28.97
2019-03-23T10:21:20.100Z,28.23
2019-03-23T10:23:46.120Z,29.67
2019-03-23T10:26:12.148Z,29.77
2019-03-23T10:28:38.190Z,28.43
2019-03-23T10:31:04.218Z,29.27
2019-03-23T10:33:30.223Z,30.07
2019-03-23T10:35:56.272Z,28.60
2019-03-23T10:38:22.322Z,30.43
2019-03-23T10:40:48.452Z,29.20
2019-03-23T10:43:14.463Z,29.17
2019-03-23T10:45:44.355Z,30.30
2019-03-23T10:48:08.420Z,29.10
2019-03-23T10:50:34.429Z,29.00
2019-03-23T10:53:01.884Z,29.23
2019-03-23T10:55:27.893Z,29.50
2019-03-23T10:57:53.928Z,30.07
2019-03-23T11:00:19.943Z,29.67
2019-03-23T11:02:45.976Z,28.77
2019-03-23T11:05:12.093Z,28.70
2019-03-23T11:07:38.123Z,29.17
2019-03-23T11:10:06.164Z,33.75
2019-03-23T11:12:32.216Z,29.07
2019-03-23T11:14:58.229Z,29.50
2019-03-23T11:17:24.259Z,30.07
2019-03-23T11:19:50.289Z,29.83
2019-03-23T11:22:16.323Z,29.53
2019-03-23T11:24:42.349Z,31.00
2019-03-23T11:27:08.382Z,28.30
2019-03-23T11:29:34.396Z,29.83
2019-03-23T11:32:01.787Z,29.13
2019-03-23T11:34:27.828Z,26.73
2019-03-23T11:36:53.859Z,26.53
2019-03-23T11:39:19.876Z,27.90
2019-03-23T11:41:45.912Z,27.70
2019-03-23T11:44:11.932Z,28.63
2019-03-23T11:46:37.967Z,27.27
2019-03-23T11:49:03.988Z,30.20
2019-03-23T11:51:30.038Z,28.63
2019-03-23T11:53:57.159Z,28.40
2019-03-23T11:56:23.191Z,27.77
2019-03-23T11:58:49.219Z,28.03
2019-03-23T12:01:15.349Z,27.37
2019-03-23T12:03:41.367Z,26.80
2019-03-23T12:06:07.395Z,26.93
2019-03-23T12:08:33.415Z,29.43
2019-03-23T12:11:03.190Z,26.57
2019-03-23T12:13:27.391Z,26.20
2019-03-23T12:15:53.514Z,26.70
2019-03-23T12:18:19.545Z,27.33
2019-03-23T12:20:45.555Z,26.30
2019-03-23T12:23:11.591Z,26.10
2019-03-23T12:25:37.607Z,28.10
2019-03-23T12:28:03.645Z,25.80
2019-03-23T12:30:29.661Z,27.23
2019-03-23T12:32:55.747Z,27.43
2019-03-23T12:35:22.799Z,26.83
2019-03-23T12:37:48.830Z,27.03
2019-03-23T12:40:14.943Z,27.77
2019-03-23T12:42:40.975Z,28.57
2019-03-23T12:45:07.797Z,27.90
2019-03-23T12:47:34.814Z,26.63
2019-03-23T12:50:01.910Z,27.20
2019-03-23T12:52:27.937Z,26.57
2019-03-23T12:54:54.046Z,26.23
2019-03-23T12:57:20.075Z,25.57
2019-03-23T12:59:46.095Z,27.40
2019-03-23T13:02:12.155Z,25.83
2019-03-23T13:04:38.243Z,24.57
2019-03-23T13:07:04.268Z,21.53
2019-03-23T13:09:30.284Z,24.07
2019-03-23T13:11:56.319Z,25.97
2019-03-23T13:14:22.335Z,26.17
2019-03-23T13:16:48.392Z,25.80
2019-03-23T13:19:14.403Z,22.80
2019-03-23T13:21:40.435Z,26.77
2019-03-23T13:24:06.503Z,25.40
2019-03-23T13:26:32.683Z,26.80
2019-03-23T13:28:59.295Z,24.80
2019-03-23T13:31:25.321Z,26.27
2019-03-23T13:33:51.364Z,24.73
2019-03-23T13:36:17.860Z,25.93
2019-03-23T13:38:43.900Z,25.07
2019-03-23T13:41:12.621Z,26.47
2019-03-23T13:43:38.652Z,25.97
2019-03-23T13:46:04.667Z,25.03
2019-03-23T13:48:30.703Z,22.40
2019-03-23T13:50:56.728Z,22.50
2019-03-23T13:53:22.763Z,21.93
2019-03-23T13:55:48.831Z,22.07
2019-03-23T13:58:14.859Z,22.80
2019-03-23T14:00:41.224Z,21.80
2019-03-23T14:03:07.376Z,23.23
2019-03-23T14:05:33.479Z,21.97
2019-03-23T14:07:59.511Z,20.60
2019-03-23T14:10:25.551Z,19.73
2019-03-23T14:12:51.665Z,20.97
2019-03-23T14:15:17.675Z,21.03
2019-03-23T14:17:43.711Z,23.60
2019-03-23T14:20:09.723Z,22.80
2019-03-23T14:22:35.761Z,21.93
2019-03-23T14:25:04.882Z,21.43
2019-03-23T14:27:30.907Z,21.10
2019-03-23T14:29:56.924Z,19.13
2019-03-23T14:32:22.998Z,21.07
2019-03-23T14:34:49.035Z,20.47
2019-03-23T14:37:15.052Z,20.67
2019-03-23T14:39:41.087Z,20.50
2019-03-23T14:42:07.099Z,20.90
2019-03-23T14:44:33.138Z,19.13
2019-03-23T14:46:59.157Z,19.20
2019-03-23T14:49:25.208Z,18.87
2019-03-23T14:51:51.295Z,20.87
2019-03-23T14:54:17.323Z,21.67
2019-03-23T14:56:43.342Z,20.87
2019-03-23T14:59:09.372Z,20.87
2019-03-23T15:01:35.392Z,20.20
2019-03-23T15:04:01.432Z,21.27
2019-03-23T15:06:27.447Z,19.30
2019-03-23T15:08:53.475Z,17.93
2019-03-23T15:11:19.492Z,20.57
2019-03-23T15:13:47.505Z,21.37
2019-03-23T15:16:13.443Z,21.53
2019-03-23T15:18:39.507Z,21.17
2019-03-23T15:21:05.519Z,21.87
2019-03-23T15:23:31.549Z,20.07
2019-03-23T15:25:57.567Z,19.77
2019-03-23T15:28:23.595Z,19.40
2019-03-23T15:30:50.874Z,19.43
2019-03-23T15:33:17.148Z,20.50
2019-03-23T15:35:43.252Z,20.90
2019-03-23T15:38:09.267Z,20.60
2019-03-23T15:40:35.279Z,20.27
2019-03-23T15:43:01.293Z,21.50
2019-03-23T15:45:27.344Z,20.80
2019-03-23T15:47:53.368Z,19.27
2019-03-23T15:50:19.428Z,22.43
2019-03-23T15:52:45.448Z,22.67
2019-03-23T15:55:11.481Z,20.83
2019-03-23T15:57:37.500Z,22.30
2019-03-23T16:00:08.444Z,20.73
2019-03-23T16:02:34.524Z,23.70
2019-03-23T16:05:01.999Z,23.23
2019-03-23T16:07:29.797Z,24.20
2019-03-23T16:09:55.955Z,23.70
2019-03-23T16:12:22.067Z,24.37
2019-03-23T16:14:48.100Z,23.33
2019-03-23T16:17:14.140Z,23.73
2019-03-23T16:19:40.176Z,25.37
2019-03-23T16:22:06.199Z,25.75
2019-03-23T16:24:32.237Z,22.87
2019-03-23T16:26:58.253Z,22.10
2019-03-23T16:29:24.284Z,22.50
2019-03-23T16:31:50.300Z,25.67
2019-03-23T16:34:16.331Z,24.17
2019-03-23T16:36:42.457Z,25.23
2019-03-23T16:39:08.511Z,24.67
2019-03-23T16:41:34.538Z,24.73
2019-03-23T16:44:02.228Z,25.07
2019-03-23T16:46:28.260Z,24.97
2019-03-23T16:48:54.288Z,25.20
2019-03-23T16:51:20.302Z,25.37
2019-03-23T16:53:46.387Z,26.27
2019-03-23T16:56:12.415Z,27.97
2019-03-23T16:58:38.455Z,28.80
2019-03-23T17:01:04.651Z,28.97
2019-03-23T17:03:30.674Z,29.60
2019-03-23T17:05:56.701Z,26.50
2019-03-23T17:08:22.711Z,26.13
2019-03-23T17:10:48.994Z,25.83
2019-03-23T17:13:15.051Z,27.50
2019-03-23T17:15:41.085Z,27.67
2019-03-23T17:18:07.093Z,26.67
2019-03-23T17:20:33.449Z,27.57
2019-03-23T17:22:59.476Z,28.13
2019-03-23T17:25:25.507Z,27.60
2019-03-23T17:27:51.523Z,28.70
2019-03-23T17:30:17.646Z,31.73
2019-03-23T17:32:43.673Z,31.87
2019-03-23T17:35:18.575Z,30.93
2019-03-23T17:37:44.079Z,32.13
2019-03-23T17:40:30.095Z,32.40
2019-03-23T17:43:05.531Z,31.50
2019-03-23T17:45:24.061Z,29.33
2019-03-23T17:47:50.171Z,30.30
2019-03-23T17:50:16.464Z,31.97
2019-03-23T17:52:42.484Z,30.70
2019-03-23T17:55:08.824Z,31.57
2019-03-23T17:57:34.839Z,30.87
2019-03-23T18:00:03.511Z,29.83
2019-03-23T18:02:29.544Z,34.17
2019-03-23T18:04:55.623Z,33.10
2019-03-23T18:07:21.636Z,32.33
2019-03-23T18:09:47.699Z,33.60
2019-03-23T18:12:13.764Z,32.17
2019-03-23T18:14:39.799Z,33.00
2019-03-23T18:17:05.823Z,34.20
2019-03-23T18:19:31.864Z,38.02
2019-03-23T18:21:57.986Z,33.30
2019-03-23T18:24:24.076Z,35.57
2019-03-23T18:26:50.275Z,36.47
2019-03-23T18:29:16.288Z,37.20
2019-03-23T18:31:42.451Z,36.00
2019-03-23T18:34:08.960Z,38.57
2019-03-23T18:36:35.055Z,39.07
2019-03-23T18:39:04.084Z,38.20
2019-03-23T18:41:30.223Z,41.23
2019-03-23T18:43:56.247Z,40.77
2019-03-23T18:46:24.470Z,38.23
2019-03-23T18:48:50.209Z,43.13
2019-03-23T18:51:16.243Z,41.97
2019-03-23T18:53:42.271Z,39.33
2019-03-23T18:56:08.311Z,41.30
2019-03-23T18:58:34.343Z,38.57
2019-03-23T19:01:00.383Z,42.23
2019-03-23T19:03:26.459Z,45.63
2019-03-23T19:05:52.508Z,45.37
2019-03-23T19:08:18.528Z,42.73
2019-03-23T19:10:44.579Z,44.67
2019-03-23T19:13:11.296Z,47.43
2019-03-23T19:15:37.463Z,47.33
2019-03-23T19:18:03.679Z,42.33
2019-03-23T19:20:29.716Z,47.03
2019-03-23T19:22:55.731Z,49.33
2019-03-23T19:25:22.827Z,46.70
2019-03-23T19:27:49.316Z,47.67
2019-03-23T19:30:16.511Z,53.97
2019-03-23T19:32:42.523Z,48.90
2019-03-23T19:35:08.675Z,47.70
2019-03-23T19:37:34.709Z,47.07
2019-03-23T19:40:00.819Z,52.20
2019-03-23T19:42:26.883Z,49.30
2019-03-23T19:44:52.899Z,44.20
2019-03-23T19:47:18.935Z,49.60
2019-03-23T19:49:44.955Z,51.90
2019-03-23T19:54:46.275Z,49.63
2019-03-23T19:57:12.419Z,51.77
2019-03-23T19:59:38.424Z,52.03
2019-03-23T20:02:04.502Z,50.70
2019-03-23T20:04:30.513Z,48.23
2019-03-23T20:06:56.555Z,51.13
2019-03-23T20:09:22.575Z,50.67
2019-03-23T20:11:48.617Z,51.23
2019-03-23T20:14:14.631Z,51.17
2019-03-23T20:16:40.762Z,52.67
2019-03-23T20:19:06.848Z,51.80
2019-03-23T20:21:32.888Z,52.03
2019-03-23T20:23:58.903Z,51.27
2019-03-23T20:26:25.037Z,51.43
2019-03-23T20:28:51.056Z,52.57
2019-03-23T20:31:17.120Z,52.13
2019-03-23T20:33:43.133Z,53.57
2019-03-23T20:36:09.279Z,53.40
2019-03-23T20:38:35.318Z,55.00
2019-03-23T20:41:01.341Z,53.23
2019-03-23T20:43:27.380Z,55.50
2019-03-23T20:45:53.533Z,55.30
2019-03-23T20:48:19.925Z,54.23
2019-03-23T20:50:46.187Z,56.50
2019-03-23T20:53:14.312Z,54.67
2019-03-23T20:55:40.352Z,56.17
2019-03-23T20:58:06.388Z,55.90
2019-03-23T21:00:32.817Z,55.87
2019-03-23T21:02:59.731Z,54.73
2019-03-23T21:05:33.951Z,56.57
2019-03-23T21:07:53.767Z,57.13
2019-03-23T21:10:19.783Z,57.77
2019-03-23T21:12:45.826Z,56.33
2019-03-23T21:15:11.840Z,56.00
2019-03-23T21:17:50.417Z,55.80
2019-03-23T21:20:06.299Z,58.00
2019-03-23T21:22:32.635Z,58.23
2019-03-23T21:24:58.651Z,55.83
2019-03-23T21:27:24.683Z,62.13
2019-03-23T21:29:50.701Z,59.93
2019-03-23T21:32:16.751Z,69.62
2019-03-23T21:34:42.759Z,61.43
2019-03-23T21:37:08.795Z,61.33
2019-03-23T21:39:34.824Z,60.47
2019-03-23T21:42:01.972Z,59.17
2019-03-23T21:44:31.151Z,60.97
2019-03-23T21:46:56.028Z,60.03
2019-03-23T21:49:22.039Z,62.37
2019-03-23T21:51:48.080Z,61.97
2019-03-23T21:54:14.100Z,61.33
2019-03-23T21:56:40.139Z,61.47
2019-03-23T21:59:06.168Z,62.73
2019-03-23T22:01:32.196Z,63.43
2019-03-23T22:03:58.211Z,63.73
2019-03-23T22:06:24.284Z,61.93
2019-03-23T22:08:50.319Z,74.57
2019-03-23T22:11:16.367Z,66.33
2019-03-23T22:13:42.399Z,64.50
2019-03-23T22:16:08.474Z,64.20
2019-03-23T22:18:34.521Z,65.73
2019-03-23T22:21:00.615Z,65.00
2019-03-23T22:23:26.891Z,66.07
2019-03-23T22:25:52.912Z,63.33
2019-03-23T22:28:19.011Z,66.83
2019-03-23T22:30:45.035Z,67.10
2019-03-23T22:33:11.067Z,69.30
2019-03-23T22:35:37.085Z,70.20
2019-03-23T22:38:03.130Z,67.93
2019-03-23T22:40:29.223Z,68.97
2019-03-23T22:42:55.259Z,63.90
2019-03-23T22:45:21.279Z,66.83
2019-03-23T22:47:47.316Z,70.00
2019-03-23T22:50:13.532Z,67.63
2019-03-23T22:52:39.563Z,67.03
2019-03-23T22:55:06.697Z,66.87
2019-03-23T22:57:32.796Z,69.47
2019-03-23T22:59:58.919Z,66.77
2019-03-23T23:02:24.935Z,67.63
2019-03-23T23:04:50.968Z,68.27
2019-03-23T23:07:16.984Z,71.77
2019-03-23T23:09:43.021Z,68.90
2019-03-23T23:12:09.141Z,68.73
2019-03-23T23:14:35.180Z,70.27
2019-03-23T23:17:01.204Z,69.17
2019-03-23T23:19:27.274Z,70.10
2019-03-23T23:21:53.290Z,77.77
2019-03-23T23:24:19.319Z,73.97
2019-03-23T23:26:45.351Z,69.23
2019-03-23T23:29:11.388Z,71.33
2019-03-23T23:31:37.404Z,68.03
2019-03-23T23:34:03.536Z,70.67
2019-03-23T23:36:29.559Z,69.97
2019-03-23T23:38:55.596Z,70.60
2019-03-23T23:41:21.612Z,71.13
2019-03-23T23:43:47.752Z,67.77
2019-03-23T23:46:13.775Z,69.53
2019-03-23T23:48:43.117Z,69.50
2019-03-23T23:51:07.723Z,72.67
2019-03-23T23:53:33.764Z,71.63
2019-03-23T23:55:59.788Z,67.67
2019-03-23T23:58:25.841Z,69.37
